Time;durP1;ratioP1;P1;durP2;ratioP2;P2;SDS_P1;SDS_P2;PMS_P1;PMS_P2;Temp;Humidity;BMP_temperature;BMP_pressure;BME280_temperature;BME280_humidity;BME280_pressure;Samples;Min_cycle;Max_cycle;Signal;HPM_P1;HPM_P2
2024/02/08 00:02:11;;;;;;;0.40;0.37;;;;;;;;;;6340907;28;20030;-80
2024/02/08 00:05:11;;;;;;;0.60;0.50;;;;;;;;;;6338518;28;20038;-80
2024/02/08 00:08:12;;;;;;;0.43;0.43;;;;;;;;;;6341538;28;20075;-81
2024/02/08 00:11:12;;;;;;;0.55;0.35;;;;;;;;;;6341233;28;20027;-81
2024/02/08 00:14:12;;;;;;;1.90;0.43;;;;;;;;;;6338480;28;20052;-81
2024/02/08 00:17:12;;;;;;;1.07;0.30;;;;;;;;;;6340133;28;20433;-81
2024/02/08 00:20:15;;;;;;;0.50;0.40;;;;;;;;;;6339329;28;20474;-80
2024/02/08 00:23:16;;;;;;;0.50;0.40;;;;;;;;;;6338245;28;20070;-80
2024/02/08 00:26:17;;;;;;;0.30;0.30;;;;;;;;;;6344001;28;20430;-80
2024/02/08 00:29:17;;;;;;;0.30;0.30;;;;;;;;;;6335942;28;20119;-81
2024/02/08 00:32:19;;;;;;;0.40;0.40;;;;;;;;;;6341287;28;20024;-80
2024/02/08 00:35:19;;;;;;;1.13;0.47;;;;;;;;;;6341094;28;20015;-80
2024/02/08 00:38:19;;;;;;;0.33;0.30;;;;;;;;;;6342952;28;20098;-80
2024/02/08 00:41:23;;;;;;;0.57;0.40;;;;;;;;;;6340666;28;20020;-80
2024/02/08 00:44:27;;;;;;;0.35;0.35;;;;;;;;;;6341806;28;20034;-81
2024/02/08 00:47:28;;;;;;;1.10;0.30;;;;;;;;;;6343266;28;20110;-80
2024/02/08 00:50:28;;;;;;;0.30;0.30;;;;;;;;;;6343729;27;20348;-80
2024/02/08 00:53:31;;;;;;;0.30;0.30;;;;;;;;;;6348558;28;20391;-79
2024/02/08 00:56:31;;;;;;;0.30;0.20;;;;;;;;;;6331231;28;20411;-79
2024/02/08 00:59:31;;;;;;;1.30;0.20;;;;;;;;;;6346819;27;20059;-80
2024/02/08 01:02:31;;;;;;;0.23;0.23;;;;;;;;;;6328767;28;20420;-80
2024/02/08 01:05:32;;;;;;;0.30;0.30;;;;;;;;;;6346205;28;20468;-80
2024/02/08 01:08:33;;;;;;;0.20;0.20;;;;;;;;;;6345105;28;20027;-80
2024/02/08 01:11:33;;;;;;;0.50;0.30;;;;;;;;;;6347007;27;20023;-80
2024/02/08 01:14:34;;;;;;;0.52;0.30;;;;;;;;;;6345093;27;20043;-81
2024/02/08 01:17:34;;;;;;;0.20;0.20;;;;;;;;;;6343097;28;20733;-80
2024/02/08 01:20:34;;;;;;;0.40;0.23;;;;;;;;;;6345553;28;20544;-80
2024/02/08 01:23:37;;;;;;;0.50;0.37;;;;;;;;;;6340706;28;20452;-80
2024/02/08 01:26:37;;;;;;;0.70;0.30;;;;;;;;;;6344088;28;20027;-80
2024/02/08 01:29:37;;;;;;;0.17;0.10;;;;;;;;;;6344990;28;20023;-80
2024/02/08 01:32:38;;;;;;;1.17;0.40;;;;;;;;;;6327466;28;20031;-81
2024/02/08 01:35:39;;;;;;;0.53;0.30;;;;;;;;;;6346033;27;20115;-80
2024/02/08 01:38:42;;;;;;;0.52;0.35;;;;;;;;;;6345179;28;20031;-80
2024/02/08 01:41:42;;;;;;;0.57;0.32;;;;;;;;;;6346375;28;20027;-80
2024/02/08 01:44:45;;;;;;;0.30;0.30;;;;;;;;;;6346897;28;20112;-81
2024/02/08 01:47:47;;;;;;;0.45;0.30;;;;;;;;;;6344818;27;20034;-80
2024/02/08 01:50:52;;;;;;;0.55;0.30;;;;;;;;;;6343217;27;20027;-80
2024/02/08 01:53:52;;;;;;;0.77;0.30;;;;;;;;;;6340987;28;21763;-80
2024/02/08 01:56:53;;;;;;;0.77;0.20;;;;;;;;;;6344528;28;20027;-80
2024/02/08 01:59:54;;;;;;;0.22;0.20;;;;;;;;;;6325685;27;20371;-82
2024/02/08 02:02:57;;;;;;;0.28;0.28;;;;;;;;;;6324734;27;20088;-82
2024/02/08 02:05:58;;;;;;;0.80;0.20;;;;;;;;;;6340524;27;20023;-81
2024/02/08 02:08:58;;;;;;;0.30;0.30;;;;;;;;;;6345313;28;20043;-82
2024/02/08 02:12:08;;;;;;;0.20;0.20;;;;;;;;;;6341819;28;20186;-82
2024/02/08 02:15:10;;;;;;;0.30;0.30;;;;;;;;;;6344084;27;20481;-82
2024/02/08 02:18:12;;;;;;;0.32;0.28;;;;;;;;;;6325176;27;20036;-80
2024/02/08 02:21:13;;;;;;;0.30;0.28;;;;;;;;;;6340584;28;20475;-82
2024/02/08 02:24:13;;;;;;;0.57;0.30;;;;;;;;;;6345635;27;20590;-82
2024/02/08 02:27:15;;;;;;;1.47;0.30;;;;;;;;;;6345745;28;20645;-82
2024/02/08 02:30:18;;;;;;;0.30;0.30;;;;;;;;;;6342352;28;20400;-82
2024/02/08 02:33:19;;;;;;;0.45;0.30;;;;;;;;;;6342766;28;20497;-82
2024/02/08 02:36:22;;;;;;;0.30;0.25;;;;;;;;;;6322946;28;20027;-82
2024/02/08 02:39:25;;;;;;;0.30;0.20;;;;;;;;;;6343625;28;20496;-82
2024/02/08 02:42:26;;;;;;;0.30;0.30;;;;;;;;;;6330208;28;20019;-82
2024/02/08 02:45:29;;;;;;;0.20;0.20;;;;;;;;;;6328629;28;20035;-82
2024/02/08 02:48:31;;;;;;;0.73;0.40;;;;;;;;;;6338627;28;20464;-82
2024/02/08 02:51:31;;;;;;;0.25;0.25;;;;;;;;;;6327459;28;20102;-82
2024/02/08 02:54:31;;;;;;;0.20;0.20;;;;;;;;;;6340911;28;20030;-82
2024/02/08 02:57:35;;;;;;;0.47;0.27;;;;;;;;;;6342416;28;20024;-81
2024/02/08 03:00:37;;;;;;;0.45;0.20;;;;;;;;;;6340120;27;20415;-82
2024/02/08 03:03:37;;;;;;;0.22;0.20;;;;;;;;;;6338678;28;20087;-82
2024/02/08 03:06:41;;;;;;;0.53;0.20;;;;;;;;;;6342395;28;20031;-82
2024/02/08 03:09:41;;;;;;;0.22;0.22;;;;;;;;;;6343835;28;20433;-82
2024/02/08 03:12:41;;;;;;;0.30;0.20;;;;;;;;;;6339575;27;20051;-81
2024/02/08 03:15:43;;;;;;;0.20;0.20;;;;;;;;;;6337917;28;20051;-82
2024/02/08 03:18:45;;;;;;;0.10;0.10;;;;;;;;;;6325502;28;20015;-81
2024/02/08 03:21:46;;;;;;;0.73;0.10;;;;;;;;;;6339997;28;20031;-82
2024/02/08 03:24:46;;;;;;;0.13;0.13;;;;;;;;;;6340713;27;20084;-82
2024/02/08 03:27:51;;;;;;;0.10;0.10;;;;;;;;;;6341223;28;20089;-82
2024/02/08 03:30:55;;;;;;;0.20;0.20;;;;;;;;;;6339610;28;20585;-82
2024/02/08 03:33:55;;;;;;;0.20;0.13;;;;;;;;;;6341631;28;20407;-82
2024/02/08 03:36:56;;;;;;;0.93;0.30;;;;;;;;;;6342043;27;20023;-82
2024/02/08 03:39:56;;;;;;;0.13;0.13;;;;;;;;;;6339255;28;20034;-82
2024/02/08 03:42:57;;;;;;;0.13;0.13;;;;;;;;;;6340389;28;20031;-82
2024/02/08 03:45:57;;;;;;;0.20;0.20;;;;;;;;;;6343951;27;20548;-82
2024/02/08 03:48:57;;;;;;;0.10;0.10;;;;;;;;;;6339904;28;20148;-82
2024/02/08 03:51:58;;;;;;;0.10;0.10;;;;;;;;;;6340198;28;20027;-81
2024/02/08 03:54:58;;;;;;;0.67;0.10;;;;;;;;;;6340815;28;20475;-82
2024/02/08 03:58:06;;;;;;;0.10;0.10;;;;;;;;;;6337431;28;20448;-82
2024/02/08 04:01:08;;;;;;;0.10;0.10;;;;;;;;;;6334760;28;20212;-81
2024/02/08 04:04:13;;;;;;;0.10;0.10;;;;;;;;;;6341771;28;20034;-82
2024/02/08 04:07:20;;;;;;;0.10;0.10;;;;;;;;;;6335922;28;20024;-82
2024/02/08 04:53:30;;;;;;;0.13;0.13;;;;;;;;;;6328190;28;20133;-82
2024/02/08 04:53:36;;;;;;;0.28;0.20;;;;;;;;;;6344122;27;20024;-81
2024/02/08 04:56:37;;;;;;;0.28;0.17;;;;;;;;;;6345885;27;20024;-80
2024/02/08 04:59:40;;;;;;;0.40;0.20;;;;;;;;;;6341662;27;20046;-80
2024/02/08 05:02:41;;;;;;;0.10;0.10;;;;;;;;;;6344373;28;20198;-80
2024/02/08 05:05:43;;;;;;;0.20;0.20;;;;;;;;;;6345441;28;20024;-80
2024/02/08 05:08:57;;;;;;;0.10;0.10;;;;;;;;;;6345120;28;20476;-80
2024/02/08 05:11:59;;;;;;;0.20;0.20;;;;;;;;;;6345464;28;20089;-80
2024/02/08 05:14:59;;;;;;;0.10;0.10;;;;;;;;;;6343152;27;20049;-80
2024/02/08 05:18:00;;;;;;;0.20;0.20;;;;;;;;;;6343698;28;20457;-80
2024/02/08 05:21:03;;;;;;;0.40;0.20;;;;;;;;;;6343112;28;20081;-80
2024/02/08 05:24:04;;;;;;;0.15;0.15;;;;;;;;;;6346893;27;20464;-80
2024/02/08 05:27:04;;;;;;;0.20;0.20;;;;;;;;;;6336010;28;20023;-80
2024/02/08 05:30:05;;;;;;;0.20;0.20;;;;;;;;;;6343220;28;20122;-80
2024/02/08 05:33:05;;;;;;;0.22;0.20;;;;;;;;;;6346158;28;20026;-80
2024/02/08 05:36:06;;;;;;;0.43;0.20;;;;;;;;;;6346524;28;20127;-80
2024/02/08 05:39:07;;;;;;;0.43;0.30;;;;;;;;;;6343411;27;20024;-81
2024/02/08 05:42:07;;;;;;;0.50;0.40;;;;;;;;;;6345849;28;20104;-81
2024/02/08 05:45:43;;;;;;;0.20;0.20;;;;;;;;;;6344071;28;21068;-81
2024/02/08 05:48:33;;;;;;;2.50;1.70;;;;;;;;;;6342007;28;20067;-81
2024/02/08 05:51:35;;;;;;;2.93;2.30;;;;;;;;;;6347938;27;20031;-81
2024/02/08 05:54:40;;;;;;;1.33;1.23;;;;;;;;;;6341175;27;20032;-81
2024/02/08 05:57:44;;;;;;;0.50;0.50;;;;;;;;;;6332736;28;20868;-81
2024/02/08 06:01:01;;;;;;;0.45;0.40;;;;;;;;;;6332501;28;20036;-81
2024/02/08 06:04:02;;;;;;;0.30;0.30;;;;;;;;;;6342399;28;20024;-82
2024/02/08 06:07:05;;;;;;;0.40;0.20;;;;;;;;;;6343450;28;20647;-82
2024/02/08 06:10:22;;;;;;;0.43;0.28;;;;;;;;;;6336393;28;20494;-81
2024/02/08 06:13:26;;;;;;;0.28;0.28;;;;;;;;;;6327616;28;20085;-81
2024/02/08 06:16:26;;;;;;;0.25;0.20;;;;;;;;;;6335176;28;20106;-81
2024/02/08 06:19:34;;;;;;;0.30;0.30;;;;;;;;;;6327021;28;20050;-82
2024/02/08 06:22:39;;;;;;;0.38;0.10;;;;;;;;;;6320322;28;20027;-81
2024/02/08 06:25:45;;;;;;;0.22;0.20;;;;;;;;;;6316009;28;20134;-81
2024/02/08 06:28:48;;;;;;;0.63;0.10;;;;;;;;;;6325371;28;20036;-81
2024/02/08 06:31:50;;;;;;;0.20;0.15;;;;;;;;;;6324277;28;20457;-81
2024/02/08 06:35:08;;;;;;;0.20;0.20;;;;;;;;;;6327401;28;20381;-81
2024/02/08 06:38:13;;;;;;;0.30;0.15;;;;;;;;;;6325702;28;20393;-82
2024/02/08 06:41:23;;;;;;;0.28;0.20;;;;;;;;;;6323770;28;20019;-81
2024/02/08 07:37:28;;;;;;;1.33;0.20;;;;;;;;;;6321990;28;20465;-83
2024/02/08 07:40:34;;;;;;;0.20;0.17;;;;;;;;;;6310975;28;20111;-83
2024/02/08 07:43:35;;;;;;;0.17;0.08;;;;;;;;;;6325971;28;20024;-83
2024/02/08 07:46:40;;;;;;;0.13;0.13;;;;;;;;;;6320360;28;20444;-81
2024/02/08 07:49:43;;;;;;;0.10;0.10;;;;;;;;;;6318144;28;20490;-81
2024/02/08 07:52:46;;;;;;;0.30;0.30;;;;;;;;;;6320830;28;20495;-80
2024/02/08 07:55:53;;;;;;;0.40;0.40;;;;;;;;;;6316937;28;20032;-81
2024/02/08 07:59:03;;;;;;;0.90;0.73;;;;;;;;;;6322835;28;20506;-78
2024/02/08 08:02:12;;;;;;;0.60;0.60;;;;;;;;;;6321537;28;22581;-78
2024/02/08 08:05:16;;;;;;;0.60;0.40;;;;;;;;;;6319254;28;20480;-78
2024/02/08 08:08:28;;;;;;;0.30;0.30;;;;;;;;;;6314515;28;20032;-78
2024/02/08 08:11:31;;;;;;;0.45;0.30;;;;;;;;;;6323790;28;20039;-79
2024/02/08 08:17:42;;;;;;;0.20;0.20;;;;;;;;;;6364014;27;20460;-79
2024/02/08 08:20:58;;;;;;;0.30;0.30;;;;;;;;;;6362973;27;20407;-79
2024/02/08 08:24:02;;;;;;;0.10;0.10;;;;;;;;;;6369338;28;20023;-78
2024/02/08 08:30:28;;;;;;;0.20;0.20;;;;;;;;;;6370705;27;20039;-78
2024/02/08 08:36:57;;;;;;;0.13;0.10;;;;;;;;;;6370119;28;20063;-79
2024/02/08 08:40:20;;;;;;;0.25;0.20;;;;;;;;;;6371510;28;20103;-78
2024/02/08 08:43:22;;;;;;;0.30;0.17;;;;;;;;;;6370982;28;20019;-78
2024/02/08 08:46:24;;;;;;;0.30;0.30;;;;;;;;;;6369857;28;20110;-78
2024/02/08 08:49:29;;;;;;;0.17;0.10;;;;;;;;;;6351323;28;20034;-78
2024/02/08 08:52:46;;;;;;;0.25;0.20;;;;;;;;;;6346437;28;20059;-80
2024/02/08 08:55:50;;;;;;;0.10;0.10;;;;;;;;;;6347426;28;20016;-79
2024/02/08 08:58:50;;;;;;;0.30;0.15;;;;;;;;;;6369920;28;20464;-79
2024/02/08 09:01:51;;;;;;;1.00;0.10;;;;;;;;;;6365881;28;20015;-79
2024/02/08 09:04:51;;;;;;;0.33;0.20;;;;;;;;;;6367610;28;20015;-79
2024/02/08 09:07:53;;;;;;;0.10;0.10;;;;;;;;;;6395753;27;20489;-81
2024/02/08 09:10:56;;;;;;;0.10;0.10;;;;;;;;;;6379511;27;20027;-84
2024/02/08 09:13:58;;;;;;;0.47;0.30;;;;;;;;;;6354632;27;20469;-84
2024/02/08 09:16:59;;;;;;;0.60;0.50;;;;;;;;;;6350437;27;20076;-84
2024/02/08 09:19:59;;;;;;;0.90;0.55;;;;;;;;;;6344864;28;20032;-85
2024/02/08 09:23:12;;;;;;;1.13;0.37;;;;;;;;;;6338399;27;20396;-83
2024/02/08 09:26:12;;;;;;;1.30;0.30;;;;;;;;;;6354748;27;20054;-84
2024/02/08 09:29:13;;;;;;;0.50;0.30;;;;;;;;;;6348752;28;20027;-84
2024/02/08 09:35:40;;;;;;;1.27;0.30;;;;;;;;;;6336194;28;20031;-88
2024/02/08 09:38:43;;;;;;;0.10;0.10;;;;;;;;;;6342490;28;20379;-81
2024/02/08 09:41:47;;;;;;;0.10;0.10;;;;;;;;;;6350735;28;20032;-88
2024/02/08 09:44:49;;;;;;;0.13;0.13;;;;;;;;;;6344433;28;20011;-88
2024/02/08 09:47:54;;;;;;;0.45;0.30;;;;;;;;;;6347169;28;20027;-90
2024/02/08 09:50:59;;;;;;;0.32;0.30;;;;;;;;;;6354600;27;20023;-91
2024/02/08 09:54:15;;;;;;;1.10;0.30;;;;;;;;;;6348819;27;20476;-90
2024/02/08 09:57:21;;;;;;;0.10;0.10;;;;;;;;;;6340301;28;20052;-90
2024/02/08 10:03:44;;;;;;;0.35;0.20;;;;;;;;;;6360472;27;20388;-92
2024/02/08 10:07:05;;;;;;;0.30;0.15;;;;;;;;;;6352619;27;20423;-91
2024/02/08 10:10:17;;;;;;;0.57;0.10;;;;;;;;;;6352439;27;20035;-92
2024/02/08 10:13:26;;;;;;;0.17;0.15;;;;;;;;;;6325969;27;20048;-92
2024/02/08 10:16:29;;;;;;;0.30;0.10;;;;;;;;;;6286079;28;20491;-91
2024/02/08 10:19:47;;;;;;;0.30;0.30;;;;;;;;;;6321356;28;20029;-90
2024/02/08 10:22:56;;;;;;;0.15;0.13;;;;;;;;;;6315034;28;20028;-92
2024/02/08 10:29:24;;;;;;;0.20;0.20;;;;;;;;;;6308604;28;20092;-92
2024/02/08 10:32:27;;;;;;;0.15;0.10;;;;;;;;;;6300127;28;20028;-91
2024/02/08 10:35:29;;;;;;;0.52;0.20;;;;;;;;;;6321380;28;20153;-92
2024/02/08 10:38:29;;;;;;;0.20;0.20;;;;;;;;;;6296473;28;20035;-91
2024/02/08 10:41:38;;;;;;;0.20;0.20;;;;;;;;;;5947063;28;10000038;-85
2024/02/08 10:44:39;;;;;;;0.30;0.10;;;;;;;;;;6317628;28;20060;-89
2024/02/08 10:47:39;;;;;;;0.20;0.20;;;;;;;;;;6293729;28;20031;-88
2024/02/08 10:50:41;;;;;;;0.20;0.20;;;;;;;;;;6288598;28;20020;-92
2024/02/08 10:53:48;;;;;;;0.10;0.10;;;;;;;;;;6302728;28;20008;-87
2024/02/08 10:57:06;;;;;;;0.55;0.10;;;;;;;;;;6291076;28;20024;-89
2024/02/08 11:03:35;;;;;;;0.10;0.10;;;;;;;;;;6318533;28;20036;-89
2024/02/08 11:06:43;;;;;;;0.20;0.10;;;;;;;;;;6302641;28;20393;-88
2024/02/08 11:09:46;;;;;;;0.22;0.10;;;;;;;;;;6307081;28;20038;-92
2024/02/08 11:12:49;;;;;;;0.10;0.10;;;;;;;;;;6313735;28;20118;-92
2024/02/08 11:15:50;;;;;;;0.10;0.10;;;;;;;;;;6299548;28;20025;-92
2024/02/08 11:18:52;;;;;;;0.28;0.25;;;;;;;;;;6280957;28;20047;-86
2024/02/08 11:21:54;;;;;;;0.40;0.20;;;;;;;;;;6295609;28;20103;-89
2024/02/08 11:24:57;;;;;;;0.10;0.10;;;;;;;;;;6271418;28;20056;-88
2024/02/08 11:28:08;;;;;;;0.10;0.10;;;;;;;;;;6292605;28;20075;-90
2024/02/08 11:31:13;;;;;;;0.20;0.10;;;;;;;;;;6284551;28;20024;-84
2024/02/08 11:34:14;;;;;;;0.32;0.10;;;;;;;;;;6278712;28;20036;-84
2024/02/08 11:37:16;;;;;;;0.10;0.10;;;;;;;;;;6297145;28;20024;-81
2024/02/08 11:40:25;;;;;;;0.10;0.10;;;;;;;;;;6296473;28;20485;-81
2024/02/08 11:43:26;;;;;;;0.10;0.10;;;;;;;;;;6294324;28;20548;-84
2024/02/08 11:46:37;;;;;;;2.13;1.93;;;;;;;;;;6296600;28;20118;-85
2024/02/08 11:49:39;;;;;;;;;;;;;;;;;;6287227;28;20047;-86
2024/02/08 11:52:39;;;;;;;1.05;0.70;;;;;;;;;;6276544;28;19912;-84
2024/02/08 11:55:44;;;;;;;0.57;0.30;;;;;;;;;;6279209;28;20094;-85
2024/02/08 11:58:46;;;;;;;0.30;0.30;;;;;;;;;;6288275;28;20054;-84
2024/02/08 12:01:48;;;;;;;0.10;0.10;;;;;;;;;;6280015;28;20462;-84
2024/02/08 12:04:52;;;;;;;0.10;0.10;;;;;;;;;;6296722;28;20024;-84
2024/02/08 12:07:57;;;;;;;0.10;0.10;;;;;;;;;;6271222;28;20033;-85
2024/02/08 12:10:57;;;;;;;0.10;0.10;;;;;;;;;;6294372;28;20116;-85
2024/02/08 12:14:01;;;;;;;0.10;0.10;;;;;;;;;;6339645;28;20047;-87
2024/02/08 12:17:02;;;;;;;0.10;0.10;;;;;;;;;;6353760;28;20118;-83
2024/02/08 12:20:02;;;;;;;0.25;0.17;;;;;;;;;;6356818;27;20037;-84
2024/02/08 12:23:02;;;;;;;0.17;0.10;;;;;;;;;;6352693;28;21582;-85
2024/02/08 12:26:04;;;;;;;0.47;0.20;;;;;;;;;;6372109;28;20107;-84
2024/02/08 12:29:05;;;;;;;0.70;0.40;;;;;;;;;;6371769;27;20046;-84
2024/02/08 12:32:16;;;;;;;4.03;2.42;;;;;;;;;;6378954;27;20018;-84
2024/02/08 12:35:20;;;;;;;2.37;1.63;;;;;;;;;;6380490;27;20107;-84
2024/02/08 12:38:21;;;;;;;1.00;0.80;;;;;;;;;;6354123;28;20392;-82
2024/02/08 12:41:22;;;;;;;0.65;0.52;;;;;;;;;;6368580;27;20102;-81
2024/02/08 12:44:24;;;;;;;0.30;0.30;;;;;;;;;;6369391;27;20034;-80
2024/02/08 12:47:24;;;;;;;0.22;0.20;;;;;;;;;;6373707;27;20023;-86
2024/02/08 12:50:25;;;;;;;0.40;0.10;;;;;;;;;;6374109;27;20038;-93
2024/02/08 12:53:25;;;;;;;0.10;0.10;;;;;;;;;;6362286;27;20070;-91
2024/02/08 12:56:25;;;;;;;0.30;0.20;;;;;;;;;;6025627;27;10000741;-91
2024/02/08 12:59:29;;;;;;;0.30;0.13;;;;;;;;;;6368759;27;20119;-92
2024/02/08 13:02:33;;;;;;;0.10;0.10;;;;;;;;;;6381517;27;20045;-92
2024/02/08 13:05:36;;;;;;;0.20;0.10;;;;;;;;;;6376057;27;20024;-91
2024/02/08 13:08:37;;;;;;;0.10;0.10;;;;;;;;;;6374061;27;20034;-92
2024/02/08 13:11:37;;;;;;;0.10;0.10;;;;;;;;;;6378292;27;20027;-92
2024/02/08 13:14:37;;;;;;;0.20;0.10;;;;;;;;;;6359546;27;20049;-91
2024/02/08 13:17:38;;;;;;;0.20;0.20;;;;;;;;;;6377360;27;20513;-90
2024/02/08 13:20:38;;;;;;;0.20;0.10;;;;;;;;;;6359372;27;20061;-87
2024/02/08 13:23:40;;;;;;;0.10;0.10;;;;;;;;;;6375382;27;20026;-91
2024/02/08 13:26:41;;;;;;;0.73;0.17;;;;;;;;;;6372114;27;20012;-91
2024/02/08 13:29:41;;;;;;;0.10;0.10;;;;;;;;;;6365469;27;20042;-92
2024/02/08 13:32:49;;;;;;;1.03;0.10;;;;;;;;;;6358795;27;20019;-90
2024/02/08 13:35:52;;;;;;;0.10;0.10;;;;;;;;;;6363703;27;20023;-90
2024/02/08 13:38:53;;;;;;;0.15;0.10;;;;;;;;;;6380321;27;20027;-90
2024/02/08 13:41:53;;;;;;;0.43;0.20;;;;;;;;;;6385535;27;20023;-90
2024/02/08 13:44:54;;;;;;;0.10;0.10;;;;;;;;;;6401222;27;20022;-89
2024/02/08 13:47:55;;;;;;;1.20;0.13;;;;;;;;;;6378041;27;20023;-89
2024/02/08 13:50:56;;;;;;;0.10;0.10;;;;;;;;;;6368054;27;20027;-89
2024/02/08 13:53:56;;;;;;;0.40;0.30;;;;;;;;;;6377602;27;20102;-90
2024/02/08 13:56:57;;;;;;;0.10;0.10;;;;;;;;;;6377892;27;20022;-90
2024/02/08 14:00:03;;;;;;;0.10;0.10;;;;;;;;;;6383086;27;20022;-90
2024/02/08 14:03:04;;;;;;;0.10;0.10;;;;;;;;;;6379726;27;20023;-90
2024/02/08 14:06:08;;;;;;;0.52;0.20;;;;;;;;;;6389979;27;20023;-90
2024/02/08 14:09:22;;;;;;;0.10;0.10;;;;;;;;;;6369741;27;20070;-92
2024/02/08 14:12:25;;;;;;;1.02;0.90;;;;;;;;;;6344832;27;20476;-86
2024/02/08 14:15:31;;;;;;;0.80;0.80;;;;;;;;;;6337977;27;20031;-87
2024/02/08 14:18:32;;;;;;;0.30;0.30;;;;;;;;;;6353976;27;20483;-87
2024/02/08 14:21:40;;;;;;;0.20;0.20;;;;;;;;;;6358181;27;20030;-87
2024/02/08 14:24:48;;;;;;;0.20;0.20;;;;;;;;;;6370312;27;20509;-87
2024/02/08 14:27:49;;;;;;;1.17;0.20;;;;;;;;;;6328696;28;20032;-87
2024/02/08 14:30:51;;;;;;;0.10;0.10;;;;;;;;;;6352745;27;20031;-87
2024/02/08 14:33:52;;;;;;;0.57;0.13;;;;;;;;;;6353491;27;20024;-87
2024/02/08 14:36:52;;;;;;;0.70;0.53;;;;;;;;;;6349890;28;20020;-87
2024/02/08 14:39:52;;;;;;;0.60;0.50;;;;;;;;;;6349802;28;20073;-87
2024/02/08 14:42:57;;;;;;;0.77;0.40;;;;;;;;;;6352392;27;20429;-87
2024/02/08 14:46:00;;;;;;;0.50;0.40;;;;;;;;;;6346570;28;20026;-87
2024/02/08 14:49:05;;;;;;;0.30;0.20;;;;;;;;;;6330672;28;20035;-87
2024/02/08 14:52:14;;;;;;;0.22;0.20;;;;;;;;;;6348181;27;20030;-86
2024/02/08 14:55:20;;;;;;;0.20;0.20;;;;;;;;;;6344713;27;20031;-87
2024/02/08 14:58:32;;;;;;;0.10;0.10;;;;;;;;;;6359797;27;20027;-87
2024/02/08 15:01:39;;;;;;;0.20;0.20;;;;;;;;;;6315737;27;20114;-86
2024/02/08 15:04:45;;;;;;;0.10;0.10;;;;;;;;;;6345240;28;20476;-87
2024/02/08 15:07:51;;;;;;;0.10;0.10;;;;;;;;;;6347305;27;20045;-87
2024/02/08 15:11:02;;;;;;;0.20;0.20;;;;;;;;;;6331561;28;20486;-87
2024/02/08 15:14:03;;;;;;;0.38;0.20;;;;;;;;;;6348557;27;20055;-87
2024/02/08 15:17:18;;;;;;;0.20;0.10;;;;;;;;;;6336047;27;20031;-87
2024/02/08 15:20:36;;;;;;;0.10;0.10;;;;;;;;;;6360050;27;20069;-86
2024/02/08 15:24:18;;;;;;;0.10;0.10;;;;;;;;;;6349726;27;20024;-86
2024/02/08 15:27:18;;;;;;;0.10;0.10;;;;;;;;;;6343506;28;20057;-86
2024/02/08 15:30:19;;;;;;;0.43;0.10;;;;;;;;;;6346721;28;20114;-87
2024/02/08 15:33:29;;;;;;;0.13;0.13;;;;;;;;;;6348600;28;20021;-91
2024/02/08 15:36:32;;;;;;;0.20;0.20;;;;;;;;;;6349743;27;20038;-87
2024/02/08 15:42:39;;;;;;;0.20;0.20;;;;;;;;;;6345218;28;20020;-87
2024/02/08 15:45:41;;;;;;;1.17;0.10;;;;;;;;;;6345347;27;20053;-88
2024/02/08 15:48:44;;;;;;;0.47;0.20;;;;;;;;;;6350293;27;20475;-89
2024/02/08 15:51:49;;;;;;;0.13;0.10;;;;;;;;;;6359960;27;20055;-87
2024/02/08 15:54:55;;;;;;;0.10;0.10;;;;;;;;;;6345477;28;20422;-89
2024/02/08 15:58:16;;;;;;;0.25;0.20;;;;;;;;;;6320093;28;20028;-88
2024/02/08 16:01:48;;;;;;;0.20;0.10;;;;;;;;;;6323661;28;20032;-89
2024/02/08 16:04:45;;;;;;;0.10;0.10;;;;;;;;;;6328510;28;20038;-89
2024/02/08 16:07:56;;;;;;;0.20;0.20;;;;;;;;;;6337332;28;20027;-88
2024/02/08 16:11:05;;;;;;;3.40;2.25;;;;;;;;;;6349872;28;20049;-81
2024/02/08 16:14:15;;;;;;;2.50;1.73;;;;;;;;;;6344792;28;20096;-81
2024/02/08 16:20:54;;;;;;;0.77;0.70;;;;;;;;;;6289735;28;20062;-81
2024/02/08 16:23:58;;;;;;;0.60;0.50;;;;;;;;;;6336059;28;20064;-81
2024/02/08 16:26:59;;;;;;;0.50;0.35;;;;;;;;;;6322311;28;20357;-82
2024/02/08 16:30:07;;;;;;;;;;;;;;;;;;6304156;28;20103;-81
2024/02/08 16:33:10;;;;;;;0.40;0.30;;;;;;;;;;6304520;28;19994;-81
2024/02/08 16:39:33;;;;;;;1.05;0.88;;;;;;;;;;6321780;28;20434;-81
2024/02/08 16:42:35;;;;;;;0.65;0.60;;;;;;;;;;6340124;28;20023;-81
2024/02/08 16:45:44;;;;;;;0.93;0.60;;;;;;;;;;6347264;28;20077;-81
2024/02/08 16:48:47;;;;;;;0.70;0.50;;;;;;;;;;6318531;28;20032;-81
2024/02/08 16:51:50;;;;;;;0.40;0.40;;;;;;;;;;6321964;28;20081;-81
2024/02/08 16:55:00;;;;;;;0.50;0.30;;;;;;;;;;6344585;28;20471;-81
2024/02/08 16:58:16;;;;;;;0.40;0.35;;;;;;;;;;6325462;28;20024;-81
2024/02/08 17:01:28;;;;;;;0.73;0.30;;;;;;;;;;6358151;28;20043;-81
2024/02/08 17:04:47;;;;;;;0.30;0.30;;;;;;;;;;6334587;28;20027;-82
2024/02/08 17:07:51;;;;;;;0.50;0.43;;;;;;;;;;6327326;28;20031;-82
2024/02/08 17:10:56;;;;;;;0.40;0.40;;;;;;;;;;6347080;28;20032;-81
2024/02/08 17:13:58;;;;;;;1.58;1.05;;;;;;;;;;6345389;28;20442;-81
2024/02/08 17:17:24;;;;;;;1.50;1.20;;;;;;;;;;6318970;28;20054;-80
2024/02/08 17:20:53;;;;;;;1.13;0.75;;;;;;;;;;6321887;28;20017;-78
2024/02/08 17:23:59;;;;;;;1.42;0.60;;;;;;;;;;6339396;28;20031;-81
2024/02/08 17:27:02;;;;;;;0.60;0.60;;;;;;;;;;6353441;28;20050;-81
2024/02/08 17:30:06;;;;;;;1.10;0.80;;;;;;;;;;6334823;27;20057;-81
2024/02/08 17:33:11;;;;;;;0.85;0.85;;;;;;;;;;6356935;27;20023;-83
2024/02/08 17:36:13;;;;;;;1.27;0.80;;;;;;;;;;6351014;28;20047;-82
2024/02/08 17:39:24;;;;;;;1.33;1.10;;;;;;;;;;6332620;28;20023;-82
2024/02/08 17:42:24;;;;;;;1.40;1.02;;;;;;;;;;6329127;28;20058;-81
2024/02/08 17:45:47;;;;;;;2.83;1.20;;;;;;;;;;6349808;28;20036;-82
2024/02/08 17:48:53;;;;;;;2.15;1.52;;;;;;;;;;6330877;28;20027;-83
2024/02/08 17:51:56;;;;;;;1.73;1.30;;;;;;;;;;6341925;27;20031;-83
2024/02/08 17:54:59;;;;;;;1.33;1.20;;;;;;;;;;6358208;27;20047;-83
2024/02/08 17:58:01;;;;;;;1.33;1.10;;;;;;;;;;6348716;27;20460;-83
2024/02/08 18:01:06;;;;;;;1.67;1.40;;;;;;;;;;6323377;28;20016;-82
2024/02/08 18:04:06;;;;;;;1.65;1.33;;;;;;;;;;6307836;28;20127;-85
2024/02/08 18:07:09;;;;;;;1.70;1.30;;;;;;;;;;6344872;28;20508;-84
2024/02/08 18:10:20;;;;;;;1.95;1.40;;;;;;;;;;6347715;28;20028;-86
2024/02/08 18:13:27;;;;;;;1.67;1.20;;;;;;;;;;6341129;28;20047;-84
2024/02/08 18:16:30;;;;;;;1.52;1.20;;;;;;;;;;6350418;28;20031;-95
2024/02/08 18:19:36;;;;;;;1.52;1.27;;;;;;;;;;6351657;28;20027;-95
2024/02/08 18:22:41;;;;;;;2.47;1.55;;;;;;;;;;6329374;28;20027;-93
2024/02/08 18:25:45;;;;;;;1.92;1.30;;;;;;;;;;6349951;28;20113;-91
2024/02/08 18:28:45;;;;;;;2.20;1.40;;;;;;;;;;6346890;28;20388;-85
2024/02/08 18:31:46;;;;;;;1.40;1.23;;;;;;;;;;6314424;28;20031;-83
2024/02/08 18:34:49;;;;;;;1.20;1.10;;;;;;;;;;6345582;28;20023;-83
2024/02/08 18:37:52;;;;;;;1.63;1.38;;;;;;;;;;6325492;28;20027;-86
2024/02/08 18:40:54;;;;;;;3.38;2.25;;;;;;;;;;6334924;28;20055;-85
2024/02/08 18:43:55;;;;;;;4.32;2.47;;;;;;;;;;6322559;28;20020;-84
2024/02/08 18:46:56;;;;;;;1.70;1.60;;;;;;;;;;6316528;28;20027;-83
2024/02/08 18:49:58;;;;;;;1.58;1.42;;;;;;;;;;6323403;28;20418;-88
2024/02/08 18:53:00;;;;;;;1.70;1.30;;;;;;;;;;6326028;28;20024;-84
2024/02/08 18:56:02;;;;;;;1.58;1.27;;;;;;;;;;6345941;27;20023;-84
2024/02/08 18:59:05;;;;;;;2.08;1.48;;;;;;;;;;6362621;27;20380;-84
2024/02/08 19:02:08;;;;;;;2.45;1.63;;;;;;;;;;6350287;27;20461;-84
2024/02/08 19:05:09;;;;;;;2.03;1.15;;;;;;;;;;6348116;28;20022;-83
2024/02/08 19:08:15;;;;;;;2.72;1.50;;;;;;;;;;6348854;28;20410;-84
2024/02/08 19:11:16;;;;;;;1.40;1.20;;;;;;;;;;6306278;28;20032;-84
2024/02/08 19:14:16;;;;;;;1.73;1.23;;;;;;;;;;6307858;28;20047;-83
2024/02/08 19:17:19;;;;;;;1.37;1.20;;;;;;;;;;6323896;28;20117;-82
2024/02/08 19:20:25;;;;;;;1.33;1.10;;;;;;;;;;6339599;28;20028;-83
2024/02/08 19:23:26;;;;;;;1.02;0.80;;;;;;;;;;6315361;28;20193;-82
2024/02/08 19:26:27;;;;;;;0.70;0.60;;;;;;;;;;6322863;28;20023;-82
2024/02/08 19:29:28;;;;;;;0.80;0.57;;;;;;;;;;6332372;28;20036;-81
2024/02/08 19:32:31;;;;;;;0.32;0.32;;;;;;;;;;6341669;28;20098;-82
2024/02/08 19:35:33;;;;;;;1.23;0.50;;;;;;;;;;6325559;28;20034;-83
2024/02/08 19:38:35;;;;;;;1.10;0.60;;;;;;;;;;6329465;28;20027;-82
2024/02/08 19:41:38;;;;;;;1.52;0.60;;;;;;;;;;6336702;28;20027;-82
2024/02/08 19:44:42;;;;;;;0.88;0.52;;;;;;;;;;6334248;28;20058;-82
2024/02/08 19:47:43;;;;;;;2.05;0.50;;;;;;;;;;6326538;28;20050;-82
2024/02/08 19:50:45;;;;;;;1.08;0.68;;;;;;;;;;6331750;28;20027;-82
2024/02/08 19:53:45;;;;;;;0.80;0.60;;;;;;;;;;6345541;28;20023;-83
2024/02/08 19:56:47;;;;;;;0.80;0.67;;;;;;;;;;6337654;28;20016;-81
2024/02/08 19:59:53;;;;;;;1.30;0.80;;;;;;;;;;6338434;28;20058;-86
2024/02/08 20:03:07;;;;;;;0.75;0.55;;;;;;;;;;6347327;28;20069;-85
2024/02/08 20:06:17;;;;;;;1.50;0.68;;;;;;;;;;6344861;28;20480;-86
2024/02/08 20:09:17;;;;;;;0.93;0.70;;;;;;;;;;6322143;28;20031;-86
2024/02/08 20:12:18;;;;;;;0.90;0.70;;;;;;;;;;6315390;28;20048;-86
2024/02/08 20:15:20;;;;;;;1.75;0.63;;;;;;;;;;6334752;28;20074;-85
2024/02/08 20:18:24;;;;;;;2.15;0.90;;;;;;;;;;6348361;28;20106;-85
2024/02/08 20:21:27;;;;;;;1.05;0.85;;;;;;;;;;6323467;28;20031;-85
2024/02/08 20:24:29;;;;;;;2.22;1.05;;;;;;;;;;6321331;28;20495;-86
2024/02/08 20:27:30;;;;;;;1.55;0.80;;;;;;;;;;6329952;28;20039;-86
2024/02/08 20:30:33;;;;;;;0.67;0.50;;;;;;;;;;6320240;28;20039;-85